Time;durP1;ratioP1;P1;durP2;ratioP2;P2;SDS_P1;SDS_P2;PMS_P1;PMS_P2;Temp;Humidity;BMP_temperature;BMP_pressure;BME280_temperature;BME280_humidity;BME280_pressure;Samples;Min_cycle;Max_cycle;Signal;HPM_P1;HPM_P2
2023/10/15 00:00:05;;;;;;;;;;;;;;;16.48;100.00;99167.16;5064041;23;19925;-87
2023/10/15 00:02:32;;;;;;;;;;;;;;;16.25;100.00;99168.16;5071275;23;19937;-88
2023/10/15 00:05:01;;;;;;;;;;;;;;;16.17;100.00;99175.41;5051424;23;19929;-87
2023/10/15 00:07:26;;;;;;;;;;;;;;;15.89;100.00;99172.63;5057950;23;19961;-87
2023/10/15 00:09:52;;;;;;;;;;;;;;;15.70;100.00;99171.38;5039718;23;19991;-86
2023/10/15 00:12:17;;;;;;;;;;;;;;;15.55;100.00;99173.22;5185361;23;20148;-85
2023/10/15 00:14:42;;;;;;;;;;;;;;;15.62;100.00;99166.13;5016805;28;19921;-85
2023/10/15 00:17:09;;;;;;;;;;;;;;;15.66;100.00;99177.25;5033042;28;19921;-85
2023/10/15 00:19:35;;;;;;;;;;;;;;;15.74;100.00;99169.16;5027907;28;19933;-85
2023/10/15 00:22:02;;;;;;;;;;;;;;;15.78;100.00;99175.78;5030000;28;19925;-87
2023/10/15 00:24:27;;;;;;;;;;;;;;;15.79;100.00;99167.59;5062083;23;19949;-86
2023/10/15 00:26:53;;;;;;;;;;;;;;;15.88;100.00;99171.00;5098206;23;19984;-86
2023/10/15 00:29:19;;;;;;;;;;;;;;;15.91;100.00;99173.25;5065211;23;19933;-87
2023/10/15 00:31:44;;;;;;;;;;;;;;;15.92;100.00;99172.25;5227656;23;20237;-87
2023/10/15 00:37:03;;;;;;;;;;;;;;;15.90;100.00;99155.66;5047325;23;19932;-88
2023/10/15 00:39:30;;;;;;;;;;;;;;;15.93;100.00;99148.13;5054698;23;20007;-86
2023/10/15 00:41:55;;;;;;;;;;;;;;;15.97;100.00;99170.69;5101382;23;20276;-87
2023/10/15 00:44:20;;;;;;;;;;;;;;;16.03;100.00;99173.59;5040191;23;19981;-84
2023/10/15 00:46:54;;;;;;;;;;;;;;;15.92;100.00;99162.44;5012998;28;20020;-87
2023/10/15 00:49:21;;;;;;;;;;;;;;;15.96;100.00;99158.38;5073424;23;19976;-87
2023/10/15 00:51:46;;;;;;;;;;;;;;;15.98;100.00;99159.03;5027818;28;19933;-84
2023/10/15 00:54:15;;;;;;;;;;;;;;;15.96;100.00;99145.06;5045716;23;19936;-85
2023/10/15 00:56:44;;;;;;;;;;;;;;;15.97;100.00;99144.06;5038980;23;19926;-87
2023/10/15 00:59:13;;;;;;;;;;;;;;;15.98;100.00;99143.06;5048495;23;19929;-87
2023/10/15 01:01:39;;;;;;;;;;;;;;;16.00;100.00;99136.72;5061148;23;19944;-87
2023/10/15 01:04:09;;;;;;;;;;;;;;;15.84;100.00;99146.59;5026314;23;19926;-80
2023/10/15 01:06:37;;;;;;;;;;;;;;;15.89;100.00;99138.06;4997099;28;20294;-83
2023/10/15 01:09:09;;;;;;;;;;;;;;;15.86;100.00;99139.22;5014572;28;19922;-83
2023/10/15 01:11:38;;;;;;;;;;;;;;;15.83;100.00;99139.63;5020897;23;19953;-83
2023/10/15 01:16:44;;;;;;;;;;;;;;;15.75;100.00;99142.38;5027819;28;19971;-84
2023/10/15 01:21:42;;;;;;;;;;;;;;;15.56;100.00;99129.63;5039248;28;19925;-84
2023/10/15 01:24:07;;;;;;;;;;;;;;;15.61;100.00;99124.59;5101188;23;19929;-82
2023/10/15 01:26:35;;;;;;;;;;;;;;;15.49;100.00;99123.41;5006997;28;19941;-83
2023/10/15 01:29:01;;;;;;;;;;;;;;;15.30;100.00;99114.16;5025034;28;20024;-85
2023/10/15 01:31:27;;;;;;;;;;;;;;;15.23;100.00;99107.91;5015933;23;19963;-85
2023/10/15 01:33:53;;;;;;;;;;;;;;;15.29;100.00;99101.84;5040399;23;19909;-83
2023/10/15 01:36:27;;;;;;;;;;;;;;;15.29;100.00;99098.38;5011439;28;19960;-82
2023/10/15 01:38:57;;;;;;;;;;;;;;;15.29;100.00;99101.84;5008726;28;19929;-83
2023/10/15 01:41:25;;;;;;;;;;;;;;;15.26;100.00;99106.69;5039653;23;19978;-82
2023/10/15 01:43:56;;;;;;;;;;;;;;;15.21;100.00;99103.78;5013314;28;20023;-82
2023/10/15 01:49:33;;;;;;;;;;;;;;;15.10;100.00;99087.28;4978674;28;19921;-84
2023/10/15 01:52:08;;;;;;;;;;;;;;;15.16;100.00;99091.03;5211892;23;19909;-82
2023/10/15 01:54:34;;;;;;;;;;;;;;;15.19;100.00;99095.19;5047048;23;19952;-82
2023/10/15 01:57:00;;;;;;;;;;;;;;;15.18;100.00;99098.84;5029038;28;20289;-83
2023/10/15 01:59:26;;;;;;;;;;;;;;;15.15;100.00;99089.38;4976068;23;1824965;-82
2023/10/15 02:01:52;;;;;;;;;;;;;;;15.20;100.00;99096.84;5000356;28;19993;-82
2023/10/15 02:04:26;;;;;;;;;;;;;;;15.21;100.00;99098.44;5002082;28;19925;-82
2023/10/15 02:06:53;;;;;;;;;;;;;;;15.25;100.00;99097.09;5009602;28;19933;-83
2023/10/15 02:09:22;;;;;;;;;;;;;;;15.31;100.00;99093.72;5132048;23;19933;-84
2023/10/15 02:11:47;;;;;;;;;;;;;;;15.27;100.00;99097.72;5083290;23;19926;-83
2023/10/15 02:14:21;;;;;;;;;;;;;;;15.29;100.00;99096.53;5052708;23;19960;-84
2023/10/15 02:16:49;;;;;;;;;;;;;;;15.29;100.00;99101.03;5056707;23;20020;-83
2023/10/15 02:19:15;;;;;;;;;;;;;;;15.27;100.00;99103.03;5146836;23;20154;-82
2023/10/15 02:21:50;;;;;;;;;;;;;;;15.20;100.00;99094.97;4994149;28;19929;-82
2023/10/15 02:24:15;;;;;;;;;;;;;;;15.21;100.00;99093.13;5039851;23;19930;-84
2023/10/15 02:26:40;;;;;;;;;;;;;;;15.20;100.00;99099.50;5028149;28;19925;-84
2023/10/15 02:29:07;;;;;;;;;;;;;;;15.13;100.00;99102.88;5031712;28;19920;-84
2023/10/15 02:31:42;;;;;;;;;;;;;;;15.12;100.00;99095.91;5016501;23;19926;-85
2023/10/15 02:34:14;;;;;;;;;;;;;;;15.15;100.00;99100.84;5012370;28;19925;-83
2023/10/15 02:36:40;;;;;;;;;;;;;;;15.15;100.00;99103.50;5003288;28;19926;-83
2023/10/15 02:39:05;;;;;;;;;;;;;;;15.05;100.00;99107.44;5006810;28;19925;-84
2023/10/15 02:41:31;;;;;;;;;;;;;;;14.92;100.00;99105.41;5010619;28;20345;-84
2023/10/15 02:43:56;;;;;;;;;;;;;;;14.93;100.00;99104.41;5012589;28;20481;-83
2023/10/15 02:46:37;;;;;;;;;;;;;;;14.92;100.00;99110.72;5021694;23;20425;-82
2023/10/15 02:49:15;;;;;;;;;;;;;;;14.91;100.00;99103.75;5004518;28;20015;-84
2023/10/15 02:51:41;;;;;;;;;;;;;;;14.77;100.00;99107.22;5012059;28;19986;-82
2023/10/15 02:54:18;;;;;;;;;;;;;;;14.73;100.00;99101.44;4996606;28;19955;-84
2023/10/15 02:56:45;;;;;;;;;;;;;;;14.57;100.00;99095.44;5024445;28;19917;-83
2023/10/15 02:59:10;;;;;;;;;;;;;;;14.52;100.00;99092.50;5026141;28;19928;-83
2023/10/15 03:01:38;;;;;;;;;;;;;;;14.30;100.00;99089.66;5072764;23;19949;-84
2023/10/15 03:04:07;;;;;;;;;;;;;;;14.26;100.00;99087.53;5023115;23;19936;-83
2023/10/15 03:06:34;;;;;;;;;;;;;;;14.33;100.00;99088.47;5082612;23;19933;-83
2023/10/15 03:08:59;;;;;;;;;;;;;;;14.33;100.00;99088.47;5013435;28;20046;-81
2023/10/15 03:11:32;;;;;;;;;;;;;;;14.16;100.00;99087.78;5012693;28;19944;-82
2023/10/15 03:14:00;;;;;;;;;;;;;;;14.24;100.00;99085.06;5142514;23;19948;-83
2023/10/15 03:16:29;;;;;;;;;;;;;;;14.08;100.00;99090.47;5094260;23;19936;-82
2023/10/15 03:18:56;;;;;;;;;;;;;;;14.13;100.00;99080.19;5068161;23;20020;-82
2023/10/15 03:21:25;;;;;;;;;;;;;;;14.15;100.00;99067.53;5024756;28;19930;-83
2023/10/15 03:23:51;;;;;;;;;;;;;;;14.21;100.00;99074.78;5036726;23;19937;-83
2023/10/15 03:26:19;;;;;;;;;;;;;;;14.18;100.00;99075.16;5132063;23;19932;-84
2023/10/15 03:28:45;;;;;;;;;;;;;;;14.31;100.00;99080.69;5010678;28;19967;-83
2023/10/15 03:31:14;;;;;;;;;;;;;;;14.39;100.00;99073.69;5049844;23;20322;-83
2023/10/15 03:33:41;;;;;;;;;;;;;;;14.43;100.00;99073.16;5055123;23;19925;-84
2023/10/15 03:36:12;;;;;;;;;;;;;;;14.42;100.00;99076.00;5039861;23;19929;-84
2023/10/15 03:38:38;;;;;;;;;;;;;;;14.49;100.00;99088.34;5073704;23;19925;-83
2023/10/15 03:41:49;;;;;;;;;;;;;;;14.51;100.00;99085.53;5012363;28;19932;-83
2023/10/15 03:43:51;;;;;;;;;;;;;;;14.59;100.00;99082.81;5025064;28;19991;-83
2023/10/15 03:46:19;;;;;;;;;;;;;;;14.62;100.00;99088.59;5054120;23;19968;-84
2023/10/15 03:48:50;;;;;;;;;;;;;;;14.64;100.00;99083.09;5075457;23;19924;-83
2023/10/15 03:51:23;;;;;;;;;;;;;;;14.46;100.00;99079.94;5059277;23;19929;-87
2023/10/15 03:53:51;;;;;;;;;;;;;;;14.34;100.00;99075.03;5033978;28;19968;-82
2023/10/15 03:56:27;;;;;;;;;;;;;;;14.20;100.00;99073.13;5056281;23;19930;-84
2023/10/15 03:58:52;;;;;;;;;;;;;;;14.20;100.00;99077.63;5130526;23;19941;-85
2023/10/15 04:01:18;;;;;;;;;;;;;;;14.19;100.00;99076.81;5016187;28;19929;-83
2023/10/15 04:03:47;;;;;;;;;;;;;;;14.21;100.00;99074.78;5026662;28;19921;-83
2023/10/15 04:06:13;;;;;;;;;;;;;;;14.13;100.00;99072.22;5030039;28;19921;-84
2023/10/15 04:08:38;;;;;;;;;;;;;;;14.09;100.00;99076.22;5028449;28;19929;-83
2023/10/15 04:11:06;;;;;;;;;;;;;;;14.09;100.00;99076.22;5093842;23;20440;-83
2023/10/15 04:13:32;;;;;;;;;;;;;;;13.91;100.00;99068.53;5061609;23;19932;-83
2023/10/15 04:15:57;;;;;;;;;;;;;;;13.77;100.00;99061.34;5088320;23;19929;-82
2023/10/15 04:18:23;;;;;;;;;;;;;;;13.80;100.00;99070.75;5026168;28;20017;-84
2023/10/15 04:20:49;;;;;;;;;;;;;;;13.80;100.00;99070.75;5030347;28;19921;-83
2023/10/15 04:23:30;;;;;;;;;;;;;;;13.72;100.00;99076.97;5029493;28;20435;-85
2023/10/15 04:25:57;;;;;;;;;;;;;;;13.55;100.00;99082.53;5033095;28;19931;-84
2023/10/15 04:28:25;;;;;;;;;;;;;;;13.41;100.00;99084.91;5025177;28;20434;-83
2023/10/15 04:31:22;;;;;;;;;;;;;;;13.50;100.00;99081.19;5111914;23;19929;31
2023/10/15 04:33:52;;;;;;;;;;;;;;;13.56;100.00;99089.44;4988518;28;19926;-83
2023/10/15 04:36:18;;;;;;;;;;;;;;;13.60;100.00;99074.88;4990969;28;20017;-83
2023/10/15 04:38:43;;;;;;;;;;;;;;;13.59;100.00;99075.88;4993377;28;20384;-84
2023/10/15 04:41:13;;;;;;;;;;;;;;;13.59;100.00;99079.34;4987659;28;20419;-84
2023/10/15 04:43:41;;;;;;;;;;;;;;;13.39;100.00;99084.22;4994989;28;19922;-84
2023/10/15 04:46:07;;;;;;;;;;;;;;;13.46;100.00;99079.91;4987980;28;19922;-84
2023/10/15 04:48:36;;;;;;;;;;;;;;;13.27;100.00;99075.00;5074772;23;19925;-84
2023/10/15 04:51:06;;;;;;;;;;;;;;;13.39;100.00;99063.03;5014995;28;19948;-83
2023/10/15 04:56:03;;;;;;;;;;;;;;;13.53;100.00;99070.25;5040130;23;19925;-83
2023/10/15 04:58:28;;;;;;;;;;;;;;;13.56;100.00;99073.53;5001885;28;19922;-83
2023/10/15 05:00:54;;;;;;;;;;;;;;;13.61;100.00;99073.88;5006011;28;19977;-86
2023/10/15 05:03:21;;;;;;;;;;;;;;;13.60;100.00;99065.09;4995668;28;20227;-86
2023/10/15 05:05:46;;;;;;;;;;;;;;;13.58;100.00;99061.78;5001347;28;19995;-84
2023/10/15 05:08:12;;;;;;;;;;;;;;;13.56;100.00;99057.63;5000357;28;20378;-84
2023/10/15 05:10:44;;;;;;;;;;;;;;;13.63;100.00;99063.91;5062372;23;19933;-85
2023/10/15 05:13:10;;;;;;;;;;;;;;;13.34;100.00;99061.91;5046326;23;19925;-85
2023/10/15 05:15:35;;;;;;;;;;;;;;;13.40;100.00;99058.56;5073621;23;19929;-84
2023/10/15 05:18:00;;;;;;;;;;;;;;;13.32;100.00;99054.09;5030895;28;19922;-83
2023/10/15 05:20:25;;;;;;;;;;;;;;;13.18;100.00;99065.44;5028986;28;20317;-84
2023/10/15 05:22:51;;;;;;;;;;;;;;;13.08;100.00;99070.06;5032114;28;20036;-85
2023/10/15 05:25:19;;;;;;;;;;;;;;;13.05;100.00;99059.81;5031200;28;20382;-85
2023/10/15 05:27:45;;;;;;;;;;;;;;;13.10;100.00;99065.44;5036512;28;19948;-89
2023/10/15 05:30:15;;;;;;;;;;;;;;;13.08;100.00;99070.06;5101952;23;20480;-87
2023/10/15 05:32:42;;;;;;;;;;;;;;;13.01;100.00;99062.00;5045413;28;19925;-88
2023/10/15 05:35:08;;;;;;;;;;;;;;;12.98;100.00;99069.44;5037951;28;19925;-84
2023/10/15 05:37:36;;;;;;;;;;;;;;;13.05;100.00;99076.53;5035737;28;19925;-85
2023/10/15 05:42:30;;;;;;;;;;;;;;;12.98;100.00;99075.56;5018519;28;20032;-83
2023/10/15 05:44:56;;;;;;;;;;;;;;;12.95;100.00;99075.09;5058803;23;19929;-83
2023/10/15 05:47:21;;;;;;;;;;;;;;;13.00;100.00;99064.81;5072881;23;19925;-83
2023/10/15 05:52:28;;;;;;;;;;;;;;;13.09;100.00;99075.19;5175791;23;19925;-84
2023/10/15 05:54:53;;;;;;;;;;;;;;;13.08;100.00;99078.00;5015730;28;20831;-84
2023/10/15 05:57:21;;;;;;;;;;;;;;;12.97;100.00;99088.97;5025258;28;19922;-86
2023/10/15 05:59:50;;;;;;;;;;;;;;;12.92;100.00;99083.34;5028775;28;19937;-85
2023/10/15 06:02:15;;;;;;;;;;;;;;;12.89;100.00;99086.34;5025942;28;19921;-85
2023/10/15 06:04:42;;;;;;;;;;;;;;;12.78;100.00;99079.59;5043134;23;19948;-86
2023/10/15 06:07:08;;;;;;;;;;;;;;;12.85;100.00;99080.53;5101066;23;19925;-84
2023/10/15 06:09:36;;;;;;;;;;;;;;;12.85;100.00;99085.00;5063235;23;19935;-84
2023/10/15 06:12:02;;;;;;;;;;;;;;;12.83;100.00;99084.38;5111089;23;19925;-85
2023/10/15 06:14:30;;;;;;;;;;;;;;;12.79;100.00;99090.97;5027708;28;20396;-85
2023/10/15 06:16:56;;;;;;;;;;;;;;;12.84;100.00;99089.47;5055211;23;19941;-86
2023/10/15 06:19:21;;;;;;;;;;;;;;;12.87;100.00;99090.97;5027164;28;19921;-84
2023/10/15 06:21:46;;;;;;;;;;;;;;;12.82;100.00;99090.66;5005644;28;20333;-86
2023/10/15 06:24:12;;;;;;;;;;;;;;;12.92;100.00;99092.13;5026471;28;19921;-85
2023/10/15 06:26:38;;;;;;;;;;;;;;;12.95;100.00;99085.69;5024873;28;19925;-85
2023/10/15 06:29:03;;;;;;;;;;;;;;;12.86;100.00;99098.09;5093630;23;19925;-86
2023/10/15 06:31:28;;;;;;;;;;;;;;;12.82;100.00;99095.97;5012905;28;20017;-85
2023/10/15 06:33:55;;;;;;;;;;;;;;;12.92;100.00;99101.88;5008584;28;19926;-85
2023/10/15 06:36:20;;;;;;;;;;;;;;;12.95;100.00;99101.56;5068031;23;19929;-86
2023/10/15 06:38:46;;;;;;;;;;;;;;;12.98;100.00;99101.22;5055187;23;19925;-81
2023/10/15 06:41:11;;;;;;;;;;;;;;;12.98;100.00;99106.50;5033459;28;20009;-83
2023/10/15 06:43:36;;;;;;;;;;;;;;;13.00;100.00;99115.13;5028498;23;19972;-84
2023/10/15 06:46:08;;;;;;;;;;;;;;;13.06;100.00;99111.81;5022247;28;19964;-84
2023/10/15 06:51:09;;;;;;;;;;;;;;;13.02;100.00;99111.28;5001454;26;19926;-83
2023/10/15 06:53:34;;;;;;;;;;;;;;;13.11;100.00;99112.94;5021210;28;19975;-82
2023/10/15 06:56:00;;;;;;;;;;;;;;;13.16;100.00;99115.09;5072989;23;19932;-84
2023/10/15 06:58:28;;;;;;;;;;;;;;;13.26;100.00;99121.03;5010755;28;19924;-86
2023/10/15 07:00:56;;;;;;;;;;;;;;;13.34;100.00;99117.53;5041628;23;19936;-74
2023/10/15 07:03:23;;;;;;;;;;;;;;;13.39;100.00;99126.63;5025027;28;19928;-74
2023/10/15 07:05:49;;;;;;;;;;;;;;;13.30;100.00;99127.66;5020511;28;20238;-74
2023/10/15 07:08:14;;;;;;;;;;;;;;;13.41;100.00;99140.56;5025383;28;20404;-74
2023/10/15 07:10:40;;;;;;;;;;;;;;;13.43;100.00;99141.19;5022545;28;20028;-73
2023/10/15 07:13:05;;;;;;;;;;;;;;;13.24;100.00;99138.94;5024379;28;19922;-74
2023/10/15 07:15:35;;;;;;;;;;;;;;;13.11;100.00;99138.59;5030808;28;19967;-73
2023/10/15 07:18:00;;;;;;;;;;;;;;;13.23;100.00;99139.94;5025297;28;20405;-74
2023/10/15 07:20:27;;;;;;;;;;;;;;;13.28;100.00;99140.25;5022695;28;19953;-73
2023/10/15 07:22:53;;;;;;;;;;;;;;;13.33;100.00;99142.38;5007810;28;19935;-74
2023/10/15 07:25:19;;;;;;;;;;;;;;;13.35;100.00;99141.22;5004315;28;19972;-74
2023/10/15 07:27:48;;;;;;;;;;;;;;;13.42;100.00;99147.50;5026528;28;20320;-75
2023/10/15 07:30:14;;;;;;;;;;;;;;;13.46;100.00;99154.13;5020995;28;19925;-76
2023/10/15 07:32:40;;;;;;;;;;;;;;;13.57;100.00;99152.91;5024862;28;19921;-73
2023/10/15 07:35:07;;;;;;;;;;;;;;;13.62;100.00;99144.44;5022312;28;20277;-75
2023/10/15 07:37:34;;;;;;;;;;;;;;;13.68;100.00;99146.41;5024815;28;19928;-76
2023/10/15 07:40:03;;;;;;;;;;;;;;;13.72;100.00;99150.38;4324841;28;10000714;-75
2023/10/15 07:42:29;;;;;;;;;;;;;;;13.75;100.00;99142.88;5019054;28;19925;-77
2023/10/15 07:44:54;;;;;;;;;;;;;;;13.78;100.00;99147.03;5025244;28;20010;-77
2023/10/15 07:47:20;;;;;;;;;;;;;;;13.85;100.00;99148.81;5004246;28;19921;-76
2023/10/15 07:49:45;;;;;;;;;;;;;;;13.78;100.00;99152.34;5022059;28;20055;-76
2023/10/15 07:52:10;;;;;;;;;;;;;;;13.89;100.00;99157.25;5021681;28;19917;-77
2023/10/15 07:54:36;;;;;;;;;;;;;;;13.97;100.00;99157.19;5019477;28;20269;-77
2023/10/15 07:57:01;;;;;;;;;;;;;;;13.99;100.00;99155.19;5023763;28;19925;-77
2023/10/15 07:59:26;;;;;;;;;;;;;;;14.04;100.00;99157.31;5025880;28;19917;-74
2023/10/15 08:01:52;;;;;;;;;;;;;;;14.14;100.00;99158.75;5021171;28;19933;-77
2023/10/15 08:04:19;;;;;;;;;;;;;;;14.21;100.00;99165.03;5021848;28;19924;-77
2023/10/15 08:06:44;;;;;;;;;;;;;;;14.19;100.00;99169.69;5020663;28;19925;-76
2023/10/15 08:09:10;;;;;;;;;;;;;;;14.14;100.00;99169.38;5019219;28;20306;-75
2023/10/15 08:11:35;;;;;;;;;;;;;;;14.19;100.00;99161.72;5005571;28;19963;-75
2023/10/15 08:14:01;;;;;;;;;;;;;;;14.24;100.00;99158.53;5022000;28;19982;-77
2023/10/15 08:16:26;;;;;;;;;;;;;;;14.28;100.00;99159.84;5023883;28;19925;-77
2023/10/15 08:18:51;;;;;;;;;;;;;;;14.32;100.00;99167.25;5016576;28;19957;-76
2023/10/15 08:21:17;;;;;;;;;;;;;;;14.44;100.00;99167.72;5022395;28;20012;-77
2023/10/15 08:23:42;;;;;;;;;;;;;;;14.57;100.00;99164.47;5018872;28;19956;-77
2023/10/15 08:26:08;;;;;;;;;;;;;;;14.69;100.00;99163.06;5022639;28;19921;-78
2023/10/15 08:28:33;;;;;;;;;;;;;;;14.83;100.00;99159.63;5019262;28;19925;-78
2023/10/15 08:30:59;;;;;;;;;;;;;;;14.89;100.00;99158.09;5022376;28;19968;-78
2023/10/15 08:33:25;;;;;;;;;;;;;;;14.95;100.00;99163.50;5027432;28;19921;-78
2023/10/15 08:35:50;;;;;;;;;;;;;;;15.04;100.00;99159.75;5004764;28;19928;-78
2023/10/15 08:38:16;;;;;;;;;;;;;;;15.02;100.00;99164.41;5023752;28;19925;-78
2023/10/15 08:40:45;;;;;;;;;;;;;;;15.10;100.00;99172.31;5008728;28;19964;-78
2023/10/15 08:43:12;;;;;;;;;;;;;;;15.23;100.00;99165.56;5024613;28;20598;-77
2023/10/15 08:45:38;;;;;;;;;;;;;;;15.36;100.00;99165.75;5005208;28;19925;-77
2023/10/15 08:48:09;;;;;;;;;;;;;;;15.47;100.00;99167.97;5009321;28;19936;-77
2023/10/15 08:50:36;;;;;;;;;;;;;;;15.58;100.00;99164.88;5023442;28;19928;-78
2023/10/15 08:53:04;;;;;;;;;;;;;;;15.68;100.00;99165.41;5026871;28;19987;-79
2023/10/15 08:55:32;;;;;;;;;;;;;;;15.79;100.00;99167.59;5018577;28;20370;-76
2023/10/15 08:57:58;;;;;;;;;;;;;;;15.92;100.00;99161.59;4314010;28;10000819;-77
2023/10/15 09:00:28;;;;;;;;;;;;;;;15.99;100.00;99170.50;5024324;28;19925;-77
2023/10/15 09:03:00;;;;;;;;;;;;;;;16.08;100.00;99168.56;5024435;28;20338;-76
2023/10/15 09:05:26;;;;;;;;;;;;;;;16.17;100.00;99165.59;5025961;28;20517;-78
2023/10/15 09:07:52;;;;;;;;;;;;;;;16.22;100.00;99157.03;5027486;28;19921;-78
2023/10/15 09:10:17;;;;;;;;;;;;;;;16.21;100.00;99166.03;5024671;28;19921;-76
2023/10/15 09:12:43;;;;;;;;;;;;;;;16.19;100.00;99158.25;5029140;28;19928;-77
2023/10/15 09:15:16;;;;;;;;;;;;;;;16.23;100.00;99158.69;5011377;28;19921;-76
2023/10/15 09:17:56;;;;;;;;;;;;;;;16.27;100.00;99159.97;5027487;28;19921;-77
2023/10/15 09:20:32;;;;;;;;;;;;;;;16.29;100.00;99168.59;5028535;28;19924;-76
2023/10/15 09:22:59;;;;;;;;;;;;;;;16.36;100.00;99164.16;5025650;28;20274;-79
2023/10/15 09:25:25;;;;;;;;;;;;;;;16.45;100.00;99168.34;5012852;28;20174;-76
2023/10/15 09:27:52;;;;;;;;;;;;;;;16.52;100.00;99163.91;5028335;28;20047;-77
2023/10/15 09:30:20;;;;;;;;;;;;;;;16.55;100.00;99168.84;5015327;28;21046;-77
2023/10/15 09:32:47;;;;;;;;;;;;;;;16.63;100.00;99173.25;5029399;28;19921;-76
2023/10/15 09:35:13;;;;;;;;;;;;;;;16.71;100.00;99163.31;5027449;28;19932;-78
2023/10/15 09:37:39;;;;;;;;;;;;;;;16.79;100.00;99171.16;5029967;28;19928;-77
2023/10/15 09:40:09;;;;;;;;;;;;;;;16.88;100.00;99173.69;5017616;28;19921;-79
2023/10/15 09:42:37;;;;;;;;;;;;;;;17.01;100.00;99173.81;5029439;28;19921;-76
2023/10/15 09:45:03;;;;;;;;;;;;;;;17.13;100.00;99177.59;5031167;28;20339;-77
2023/10/15 09:47:28;;;;;;;;;;;;;;;17.19;100.00;99177.66;5029553;28;20429;-81
2023/10/15 09:49:55;;;;;;;;;;;;;;;17.29;100.00;99179.97;5033690;28;19953;-75
2023/10/15 09:52:20;;;;;;;;;;;;;;;17.34;100.00;99180.19;5027998;28;19992;-77
2023/10/15 09:54:48;;;;;;;;;;;;;;;17.43;100.00;99168.38;5034784;28;19925;-78
2023/10/15 09:57:16;;;;;;;;;;;;;;;17.54;100.00;99186.50;5013774;28;20007;-76
2023/10/15 09:59:41;;;;;;;;;;;;;;;17.57;100.00;99179.94;5028620;28;20416;-75
2023/10/15 10:02:12;;;;;;;;;;;;;;;17.68;100.00;99181.25;5025938;28;19922;-78
2023/10/15 10:04:56;;;;;;;;;;;;;;;17.83;100.00;99179.28;5032556;28;20278;-77
2023/10/15 10:07:34;;;;;;;;;;;;;;;17.94;100.00;99176.06;5024879;28;19921;-78
2023/10/15 10:10:04;;;;;;;;;;;;;;;18.05;100.00;99178.16;5025331;28;20696;-75
2023/10/15 10:12:32;;;;;;;;;;;;;;;18.12;100.00;99176.31;5026760;28;19917;-77
2023/10/15 10:15:01;;;;;;;;;;;;;;;18.19;100.00;99185.19;5024838;28;20344;-75
2023/10/15 10:17:28;;;;;;;;;;;;;;;18.21;100.00;99177.78;5031077;28;19918;-80
2023/10/15 10:19:53;;;;;;;;;;;;;;;18.24;100.00;99177.41;5025393;28;20017;-78
2023/10/15 10:22:29;;;;;;;;;;;;;;;18.29;100.00;99179.47;5029351;28;19960;-78
2023/10/15 10:24:55;;;;;;;;;;;;;;;18.34;100.00;99174.34;5026601;28;19922;-78
2023/10/15 10:27:20;;;;;;;;;;;;;;;18.36;100.00;99174.97;5030824;28;20007;-77
2023/10/15 10:30:15;;;;;;;;;;;;;;;18.42;100.00;99183.00;5026865;28;19964;-77
2023/10/15 10:32:41;;;;;;;;;;;;;;;18.48;100.00;99183.22;5023614;28;19925;-77
2023/10/15 10:35:18;;;;;;;;;;;;;;;18.53;100.00;99186.09;5030509;28;19972;-78
2023/10/15 10:38:11;;;;;;;;;;;;;;;18.58;100.00;99179.16;5027317;28;19925;-76
2023/10/15 10:41:03;;;;;;;;;;;;;;;18.62;100.00;99183.03;5031450;28;19925;-79
2023/10/15 10:43:28;;;;;;;;;;;;;;;18.67;100.00;99182.47;5027776;28;19925;-80
2023/10/15 10:45:55;;;;;;;;;;;;;;;18.71;100.00;99189.03;5024806;28;19921;-76
2023/10/15 10:48:25;;;;;;;;;;;;;;;18.74;100.00;99186.75;5011121;28;19925;-77
2023/10/15 10:51:09;;;;;;;;;;;;;;;18.77;100.00;99182.88;5023400;28;19929;-77
2023/10/15 10:53:35;;;;;;;;;;;;;;;18.76;100.00;99186.56;5021571;28;19921;-74
2023/10/15 10:56:04;;;;;;;;;;;;;;;18.76;100.00;99187.41;5027554;28;19928;-76
2023/10/15 10:58:30;;;;;;;;;;;;;;;18.79;100.00;99180.84;5020383;28;20285;-76
2023/10/15 11:00:56;;;;;;;;;;;;;;;18.81;100.00;99184.94;5021842;28;19925;-75
2023/10/15 11:03:22;;;;;;;;;;;;;;;18.83;100.00;99176.72;5024927;28;20016;-77
2023/10/15 11:05:48;;;;;;;;;;;;;;;18.88;100.00;99173.41;5007204;28;19949;-75
2023/10/15 11:08:17;;;;;;;;;;;;;;;18.91;100.00;99176.50;5025582;28;19994;-78
2023/10/15 11:10:45;;;;;;;;;;;;;;;18.95;100.00;99175.06;5023722;28;19921;-76
2023/10/15 11:13:11;;;;;;;;;;;;;;;19.02;100.00;99175.06;5022375;28;20341;-75
2023/10/15 11:15:36;;;;;;;;;;;;;;;19.04;100.00;99173.81;5023192;28;19929;-76
2023/10/15 11:18:04;;;;;;;;;;;;;;;19.08;100.00;99180.44;5009443;28;19926;-75
2023/10/15 11:20:33;;;;;;;;;;;;;;;19.14;100.00;99174.22;5024408;28;19928;-77
2023/10/15 11:23:01;;;;;;;;;;;;;;;19.19;100.00;99179.81;5022842;28;19928;-75
2023/10/15 11:25:26;;;;;;;;;;;;;;;19.27;100.00;99177.91;5027434;28;19921;-74
2023/10/15 11:27:52;;;;;;;;;;;;;;;19.35;100.00;99169.69;5024116;28;19966;-76
2023/10/15 11:30:20;;;;;;;;;;;;;;;19.46;100.00;99167.22;5025729;28;19928;-76
2023/10/15 11:32:46;;;;;;;;;;;;;;;19.66;100.00;99167.19;5024914;28;20388;-76
2023/10/15 11:35:17;;;;;;;;;;;;;;;19.84;100.00;99169.19;5007046;28;20293;-74
2023/10/15 11:37:44;;;;;;;;;;;;;;;20.00;100.00;99158.81;5022562;28;20321;-77
2023/10/15 11:40:11;;;;;;;;;;;;;;;20.15;100.00;99149.66;5026763;28;19991;-75
2023/10/15 11:42:51;;;;;;;;;;;;;;;20.23;100.00;99146.75;5004545;28;19925;-74
2023/10/15 11:45:25;;;;;;;;;;;;;;;20.31;100.00;99159.91;5025009;28;19917;-76
2023/10/15 11:47:53;;;;;;;;;;;;;;;20.40;100.00;99154.09;5025435;28;20063;-75
2023/10/15 11:50:19;;;;;;;;;;;;;;;20.53;100.00;99161.22;5024970;28;19921;-76
2023/10/15 11:52:49;;;;;;;;;;;;;;;20.63;100.00;99158.88;5022373;28;19922;-75
2023/10/15 11:55:19;;;;;;;;;;;;;;;20.70;100.00;99151.63;5025736;28;19921;-74
2023/10/15 11:57:54;;;;;;;;;;;;;;;20.78;100.00;99142.50;5023341;28;19929;-77
2023/10/15 12:00:23;;;;;;;;;;;;;;;20.91;100.00;99144.25;5023967;28;19928;-74
2023/10/15 12:02:51;;;;;;;;;;;;;;;21.05;100.00;99156.50;5025018;28;19921;-74
2023/10/15 12:05:16;;;;;;;;;;;;;;;21.17;100.00;99139.50;5023650;28;19931;-76
2023/10/15 12:07:42;;;;;;;;;;;;;;;21.32;100.00;99152.59;5008788;28;19921;-76
2023/10/15 12:10:17;;;;;;;;;;;;;;;21.43;100.00;99151.84;5024515;28;19928;-75
2023/10/15 12:12:42;;;;;;;;;;;;;;;21.48;100.00;99143.94;5028032;28;19917;-75
2023/10/15 12:15:09;;;;;;;;;;;;;;;21.49;100.00;99148.28;5027155;28;19933;-75
2023/10/15 12:17:34;;;;;;;;;;;;;;;21.44;100.00;99139.25;5029203;28;19924;-75
2023/10/15 12:20:00;;;;;;;;;;;;;;;21.35;100.00;99145.94;5026465;28;20292;-73
2023/10/15 12:22:26;;;;;;;;;;;;;;;21.21;100.00;99140.69;5026185;28;19957;-76
2023/10/15 12:24:51;;;;;;;;;;;;;;;21.19;100.00;99136.59;5023249;28;20024;-74
2023/10/15 12:27:17;;;;;;;;;;;;;;;21.21;100.00;99147.91;5027140;28;20373;-74
2023/10/15 12:29:42;;;;;;;;;;;;;;;21.34;100.00;99141.59;5028189;28;19944;-74
2023/10/15 12:32:08;;;;;;;;;;;;;;;21.51;100.00;99140.81;5027425;28;19956;-77
2023/10/15 12:34:34;;;;;;;;;;;;;;;21.69;100.00;99141.84;5026183;28;19926;-78
2023/10/15 12:36:59;;;;;;;;;;;;;;;21.81;100.00;99143.56;5029807;28;19929;-75
2023/10/15 12:39:28;;;;;;;;;;;;;;;21.97;100.00;99150.22;5024158;28;19975;-77
2023/10/15 12:41:54;;;;;;;;;;;;;;;22.04;100.00;99150.94;5031738;28;19929;-76
2023/10/15 12:44:22;;;;;;;;;;;;;;;22.09;100.00;99153.78;5026064;28;19921;-76
2023/10/15 12:46:47;;;;;;;;;;;;;;;22.21;100.00;99141.22;5029541;28;19963;-77
2023/10/15 12:49:13;;;;;;;;;;;;;;;22.31;100.00;99146.88;5010872;28;20278;-77
2023/10/15 12:51:39;;;;;;;;;;;;;;;22.43;100.00;99146.91;5027162;28;19948;-77
2023/10/15 12:54:04;;;;;;;;;;;;;;;22.62;100.00;99153.06;5026424;28;19921;-76
2023/10/15 12:56:30;;;;;;;;;;;;;;;22.75;100.00;99152.84;5029436;28;19960;-74
2023/10/15 12:58:56;;;;;;;;;;;;;;;22.91;100.00;99152.22;5025448;28;19969;-76